Hartland, Ohio
Current Conditions -  °F | °C
As of 6:53 AM on Monday 20 Oct 2014 (Local Time) from KLPR Reporting Station
Overcast Overcast  
Wind Chill: 43°   Ceiling: 8500
Heat Index: 47°   Visibility: 10mi
Dew Point: 40°   Wind: 8mph
Humidity: 77%   Direction: 210°SSW
Pressure: 29.95"   Gusts: NA
Location:  41.2186°N, 82.5851°W
Report Text: KLPR 201053Z AUTO 21007KT 10SM OVC085 08/04 A2995 RMK AO2 SLP143 T00830044 TSNO
Loading
Personal Weather Stations






























Interactive Weather Map
Tropical Storm Tracking
New forecast layout! Learn more

10-Day Weather Forecast

Advertisements
Track Severe Weather on mobile